Terminal Aerodrome Forecast
Issued by NWS Wichita, KS

Home | Current Version | Previous Version | Graphics & Text | Print | Product List | Glossary On
Versions: 1 2 3 4 5 6 7 8 9 10 11 12 13 14 15 16 17 18 19 20 21 22 23 24
000
FTUS43 KICT 291243 AAC
TAFICT
TAF AMD
KICT 291243Z 2913/3012 04017G25KT P6SM OVC035
      TEMPO 2913/2916 6SM -TSRA BKN014 OVC030CB
     FM291600 07017G25KT P6SM VCTS OVC025CB
     FM292100 09017G24KT 6SM -TSRA OVC012CB
     FM300400 14016KT 5SM -TSRA BR OVC008CB
     FM300900 23016G24KT P6SM SCT020 BKN025=

USA.gov is the U.S. government's official web portal to all federal, state and local government web resources and services.